Time;durP1;ratioP1;P1;durP2;ratioP2;P2;SDS_P1;SDS_P2;PMS_P1;PMS_P2;Temp;Humidity;BMP_temperature;BMP_pressure;BME280_temperature;BME280_humidity;BME280_pressure;Samples;Min_cycle;Max_cycle;Signal;HPM_P1;HPM_P2
2021/12/01 00:01:01;;;;;;;17.88;7.97;;;7.50;99.90;;;;;;5089038;28;20261;-79
2021/12/01 00:03:28;;;;;;;10.57;6.72;;;7.50;99.90;;;;;;5085372;28;20241;-79
2021/12/01 00:05:56;;;;;;;14.70;8.10;;;7.50;99.90;;;;;;5084399;28;20293;-79
2021/12/01 00:08:23;;;;;;;16.10;7.30;;;7.50;99.90;;;;;;5083149;28;20210;-79
2021/12/01 00:10:50;;;;;;;18.27;7.65;;;7.40;99.90;;;;;;5083964;28;20208;-79
2021/12/01 00:13:19;;;;;;;11.60;7.53;;;7.50;99.90;;;;;;5081515;28;20226;-80
2021/12/01 00:15:47;;;;;;;15.13;8.02;;;7.60;99.90;;;;;;5080050;28;20264;-79
2021/12/01 00:18:16;;;;;;;18.85;8.95;;;7.40;99.90;;;;;;5078381;28;20203;-78
2021/12/01 00:20:45;;;;;;;13.38;9.45;;;7.40;99.90;;;;;;5079405;28;20220;-78
2021/12/01 00:23:14;;;;;;;20.85;9.60;;;7.30;99.90;;;;;;5078032;28;20272;-79
2021/12/01 00:25:42;;;;;;;17.02;8.98;;;7.20;99.90;;;;;;5078515;28;20239;-79
2021/12/01 00:28:10;;;;;;;24.48;11.05;;;7.30;99.90;;;;;;5079405;28;20269;-78
2021/12/01 00:30:37;;;;;;;16.17;11.20;;;7.30;99.90;;;;;;5070648;28;20297;-79
2021/12/01 00:33:04;;;;;;;26.17;9.55;;;7.40;99.90;;;;;;5078026;28;20222;-81
2021/12/01 00:35:32;;;;;;;22.55;11.23;;;7.30;99.90;;;;;;5079196;28;20270;-78
2021/12/01 00:37:58;;;;;;;18.10;10.73;;;7.30;99.90;;;;;;5076812;28;20573;-78
2021/12/01 00:40:27;;;;;;;21.23;10.68;;;7.50;99.90;;;;;;5077521;28;20217;-78
2021/12/01 00:42:54;;;;;;;17.80;8.45;;;7.50;99.90;;;;;;5076752;28;20232;-79
2021/12/01 00:45:22;;;;;;;23.20;10.10;;;7.50;99.90;;;;;;5077197;28;20670;-78
2021/12/01 00:47:52;;;;;;;15.15;10.55;;;7.40;99.90;;;;;;5078373;28;20244;-79
2021/12/01 00:50:23;;;;;;;24.13;10.82;;;7.50;99.90;;;;;;5077362;28;20235;-78
2021/12/01 00:52:51;;;;;;;16.85;11.65;;;7.40;99.90;;;;;;5076912;28;20218;-79
2021/12/01 00:55:17;;;;;;;13.95;11.25;;;7.40;99.90;;;;;;5076466;28;20863;-79
2021/12/01 00:57:46;;;;;;;17.70;9.90;;;7.40;99.90;;;;;;5076522;28;20265;-79
2021/12/01 01:00:14;;;;;;;16.75;10.50;;;7.30;99.90;;;;;;5075889;28;20214;-78
2021/12/01 01:02:41;;;;;;;12.95;8.77;;;7.40;99.90;;;;;;5075786;28;20313;-79
2021/12/01 01:05:10;;;;;;;17.50;11.73;;;7.30;99.90;;;;;;5074412;28;20714;-78
2021/12/01 01:07:37;;;;;;;19.30;11.00;;;7.30;99.90;;;;;;5077659;28;20206;-78
2021/12/01 01:10:16;;;;;;;20.33;10.70;;;7.30;99.90;;;;;;5071075;28;20195;-79
2021/12/01 01:18:14;;;;;;;22.08;12.43;;;7.30;99.90;;;;;;5072464;28;20211;-79
2021/12/01 01:20:41;;;;;;;17.52;11.82;;;7.50;99.90;;;;;;5068755;28;20199;-79
2021/12/01 01:23:08;;;;;;;16.50;12.15;;;7.30;99.90;;;;;;5073137;28;20230;-79
2021/12/01 01:25:35;;;;;;;20.80;12.07;;;7.30;99.90;;;;;;5073497;28;20633;-79
2021/12/01 01:28:02;;;;;;;18.48;11.35;;;7.40;99.90;;;;;;5071247;28;20198;-79
2021/12/01 01:30:31;;;;;;;17.50;11.10;;;7.40;99.90;;;;;;5071216;28;20220;-79
2021/12/01 01:32:58;;;;;;;14.18;10.23;;;7.40;99.90;;;;;;5069565;28;20222;-79
2021/12/01 01:35:25;;;;;;;20.58;11.85;;;7.40;99.90;;;;;;5072085;28;20591;-79
2021/12/01 01:37:52;;;;;;;20.88;13.10;;;7.30;99.90;;;;;;5071387;28;20209;-79
2021/12/01 01:40:20;;;;;;;18.80;13.07;;;7.40;99.90;;;;;;5072424;28;20288;-79
2021/12/01 01:42:48;;;;;;;19.52;14.15;;;7.40;99.90;;;;;;5075815;28;20359;-79
2021/12/01 01:45:15;;;;;;;18.23;13.68;;;7.40;99.90;;;;;;5070339;28;20288;-79
2021/12/01 01:47:58;;;;;;;21.92;13.32;;;7.50;99.90;;;;;;5073517;28;20202;-79
2021/12/01 01:50:34;;;;;;;22.63;13.30;;;7.40;99.90;;;;;;5070237;28;20244;-79
2021/12/01 01:53:02;;;;;;;18.27;11.88;;;7.40;99.90;;;;;;5070243;28;20233;-79
2021/12/01 01:55:29;;;;;;;15.10;11.18;;;7.40;99.90;;;;;;5072476;28;20288;-79
2021/12/01 01:57:56;;;;;;;19.30;13.52;;;7.40;99.90;;;;;;5071622;28;20232;-79
2021/12/01 02:00:23;;;;;;;12.00;10.02;;;7.50;99.90;;;;;;5077346;28;20288;-80
2021/12/01 02:02:51;;;;;;;14.95;11.20;;;7.60;99.90;;;;;;5065425;28;20282;-79
2021/12/01 02:05:18;;;;;;;17.05;11.65;;;7.70;99.90;;;;;;5077568;28;20218;-80
2021/12/01 02:07:45;;;;;;;12.85;9.63;;;7.70;99.90;;;;;;5075401;28;20554;-78
2021/12/01 02:10:25;;;;;;;12.80;9.40;;;7.70;99.90;;;;;;5075418;28;20224;-80
2021/12/01 02:12:52;;;;;;;11.05;8.93;;;7.70;99.90;;;;;;5075088;28;20607;-79
2021/12/01 02:15:24;;;;;;;12.85;10.55;;;7.70;99.90;;;;;;5080734;28;20238;-79
2021/12/01 02:17:52;;;;;;;11.30;9.00;;;7.80;99.90;;;;;;5077524;28;20244;-80
2021/12/01 02:20:22;;;;;;;8.68;7.28;;;7.90;99.90;;;;;;5075608;28;20209;-80
2021/12/01 02:22:49;;;;;;;10.25;8.13;;;7.90;99.90;;;;;;5077129;28;20309;-79
2021/12/01 02:25:16;;;;;;;13.85;9.35;;;8.00;99.90;;;;;;5077020;28;20198;-80
2021/12/01 02:27:47;;;;;;;18.17;9.68;;;8.00;99.90;;;;;;5077993;28;20199;-80
2021/12/01 02:30:23;;;;;;;8.30;7.45;;;8.00;99.90;;;;;;5080537;28;20217;-80
2021/12/01 02:33:29;;;;;;;10.68;8.05;;;8.10;99.90;;;;;;5023051;28;20218;-80
2021/12/01 02:36:33;;;;;;;10.68;7.60;;;8.10;99.90;;;;;;5079384;28;20293;-79
2021/12/01 02:39:20;;;;;;;13.25;7.55;;;8.10;99.90;;;;;;5075953;28;20222;-80
2021/12/01 02:41:52;;;;;;;10.82;7.97;;;8.30;99.90;;;;;;5073092;28;20233;-80
2021/12/01 02:44:20;;;;;;;13.10;9.55;;;8.30;99.90;;;;;;5077566;28;20229;-79
2021/12/01 02:46:47;;;;;;;9.07;6.70;;;8.30;99.90;;;;;;5078437;28;20194;-80
2021/12/01 02:49:22;;;;;;;12.32;9.35;;;8.30;99.90;;;;;;5081178;28;20296;-80
2021/12/01 02:51:53;;;;;;;11.35;8.75;;;8.40;99.90;;;;;;5080560;28;20865;-80
2021/12/01 02:54:20;;;;;;;11.43;7.95;;;8.50;99.90;;;;;;5080666;28;20201;-79
2021/12/01 02:56:49;;;;;;;13.57;9.43;;;8.50;99.90;;;;;;5080732;28;20252;-79
2021/12/01 02:59:17;;;;;;;15.25;8.60;;;8.50;99.90;;;;;;5084063;28;20267;-79
2021/12/01 03:01:45;;;;;;;14.95;10.05;;;8.50;99.90;;;;;;5093199;28;20223;-79
2021/12/01 03:04:13;;;;;;;16.45;11.05;;;8.50;99.90;;;;;;5091253;28;20238;-79
2021/12/01 03:06:42;;;;;;;17.00;11.05;;;8.60;99.90;;;;;;5088644;28;20203;-79
2021/12/01 03:09:12;;;;;;;23.00;12.80;;;8.70;99.90;;;;;;5087989;28;20199;-79
2021/12/01 03:11:39;;;;;;;15.32;11.27;;;8.70;99.90;;;;;;5087121;28;20223;-79
2021/12/01 03:14:10;;;;;;;15.40;10.80;;;8.80;99.90;;;;;;5097799;28;20206;-80
2021/12/01 03:16:37;;;;;;;23.33;14.45;;;8.80;99.90;;;;;;5099940;28;20172;-80
2021/12/01 03:19:04;;;;;;;18.13;12.50;;;8.90;99.90;;;;;;5098557;28;20214;-79
2021/12/01 03:21:31;;;;;;;23.33;15.43;;;9.10;99.90;;;;;;5090648;28;20210;-80
2021/12/01 03:23:59;;;;;;;20.38;14.15;;;9.00;99.90;;;;;;5090565;28;20207;-79
2021/12/01 03:26:29;;;;;;;23.33;15.35;;;9.20;99.90;;;;;;5097664;28;20213;-80
2021/12/01 03:28:56;;;;;;;17.55;13.30;;;9.30;99.90;;;;;;5089250;28;20210;-80
2021/12/01 03:31:23;;;;;;;27.65;16.75;;;9.20;99.90;;;;;;5075436;28;20273;-80
2021/12/01 03:37:06;;;;;;;17.77;12.73;;;9.40;99.90;;;;;;5076487;28;20229;-79
2021/12/01 03:39:39;;;;;;;26.10;16.08;;;9.30;99.90;;;;;;5079860;28;20223;-79
2021/12/01 03:42:12;;;;;;;17.33;13.02;;;9.40;99.90;;;;;;5080415;28;20234;-80
2021/12/01 03:44:45;;;;;;;24.05;14.18;;;9.40;99.90;;;;;;5074015;28;20234;-80
2021/12/01 03:47:14;;;;;;;26.42;15.80;;;9.40;99.90;;;;;;5079519;28;20199;-80
2021/12/01 03:49:45;;;;;;;24.90;16.00;;;9.60;99.90;;;;;;5080665;28;20302;-79
2021/12/01 03:52:16;;;;;;;19.23;13.48;;;9.50;99.90;;;;;;5079758;28;20229;-80
2021/12/01 03:54:43;;;;;;;18.92;12.43;;;9.70;99.90;;;;;;5079887;28;20206;-79
2021/12/01 03:57:12;;;;;;;19.27;12.77;;;9.60;99.90;;;;;;5080274;28;20238;-80
2021/12/01 03:59:39;;;;;;;26.73;15.77;;;9.60;99.90;;;;;;5078799;28;20289;-79
2021/12/01 04:02:06;;;;;;;19.73;14.70;;;9.60;99.90;;;;;;5078953;28;20409;-80
2021/12/01 04:04:33;;;;;;;25.50;15.70;;;9.60;99.90;;;;;;5079100;28;20575;-79
2021/12/01 04:07:00;;;;;;;27.30;15.02;;;9.60;99.90;;;;;;5079418;28;20290;-79
2021/12/01 04:09:28;;;;;;;25.08;15.05;;;9.60;99.90;;;;;;5079790;28;20549;-80
2021/12/01 04:11:55;;;;;;;19.42;12.52;;;9.70;99.90;;;;;;5076742;28;20215;-79
2021/12/01 04:14:24;;;;;;;18.25;12.00;;;9.80;99.90;;;;;;5076459;28;20262;-80
2021/12/01 04:16:51;;;;;;;15.13;9.95;;;9.80;99.90;;;;;;5072475;28;20633;-79
2021/12/01 04:19:18;;;;;;;17.55;10.85;;;9.80;99.90;;;;;;5079665;28;20257;-79
2021/12/01 04:21:49;;;;;;;15.95;9.73;;;9.80;99.90;;;;;;5077831;28;20712;-79
2021/12/01 04:24:16;;;;;;;12.95;8.57;;;9.80;99.90;;;;;;5079004;28;20246;-79
2021/12/01 04:26:43;;;;;;;11.98;9.02;;;9.80;99.90;;;;;;5078414;28;20290;-79
2021/12/01 04:29:10;;;;;;;11.85;6.57;;;9.90;99.90;;;;;;5078301;28;20230;-79
2021/12/01 04:31:40;;;;;;;9.75;6.95;;;9.80;99.90;;;;;;5078643;28;20223;-80
2021/12/01 04:34:08;;;;;;;9.90;7.30;;;9.90;99.90;;;;;;5078416;28;20199;-80
2021/12/01 04:36:38;;;;;;;8.85;5.90;;;9.80;99.90;;;;;;5073461;28;20303;-79
2021/12/01 04:39:09;;;;;;;6.80;5.47;;;9.80;99.90;;;;;;5071301;28;20663;-79
2021/12/01 04:41:39;;;;;;;7.50;4.95;;;9.90;99.90;;;;;;5077731;28;20219;-80
2021/12/01 04:44:14;;;;;;;5.50;4.00;;;9.90;99.90;;;;;;5078531;28;20250;-80
2021/12/01 04:46:44;;;;;;;3.88;3.42;;;9.80;99.90;;;;;;5079175;28;20207;-79
2021/12/01 04:49:14;;;;;;;8.23;3.63;;;9.90;99.90;;;;;;5077403;28;20202;-79
2021/12/01 04:51:44;;;;;;;3.28;2.80;;;9.90;99.90;;;;;;5070404;28;20223;-81
2021/12/01 04:56:55;;;;;;;4.40;2.30;;;9.80;99.90;;;;;;5078981;28;20194;-80
2021/12/01 05:03:29;;;;;;;3.33;2.42;;;9.80;99.90;;;;;;5020623;28;20298;-81
2021/12/01 05:05:57;;;;;;;4.05;3.53;;;9.80;99.90;;;;;;5036213;28;20207;-79
2021/12/01 05:08:24;;;;;;;3.22;2.70;;;9.70;99.90;;;;;;5036211;28;20228;-79
2021/12/01 05:11:06;;;;;;;2.65;2.45;;;9.70;99.90;;;;;;5063566;28;20209;-79
2021/12/01 05:13:45;;;;;;;3.70;2.65;;;9.70;99.90;;;;;;5079006;28;20206;-79
2021/12/01 05:16:28;;;;;;;3.65;3.20;;;9.70;99.90;;;;;;5078856;28;20198;-79
2021/12/01 05:19:22;;;;;;;3.53;2.67;;;9.70;99.90;;;;;;5078818;28;20201;-79
2021/12/01 05:22:05;;;;;;;3.10;2.80;;;9.70;99.90;;;;;;5079016;28;20802;-79
2021/12/01 05:24:35;;;;;;;3.90;3.55;;;9.60;99.90;;;;;;5078284;28;20305;-78
2021/12/01 05:27:05;;;;;;;3.40;3.10;;;9.70;99.90;;;;;;5078443;28;20282;-78
2021/12/01 05:29:37;;;;;;;4.80;3.78;;;9.60;99.90;;;;;;5078422;28;20273;-78
2021/12/01 05:32:07;;;;;;;4.70;3.83;;;9.70;99.90;;;;;;5060654;28;20306;-79
2021/12/01 05:34:51;;;;;;;4.93;4.38;;;9.70;99.90;;;;;;5076708;28;20202;-79
2021/12/01 05:41:05;;;;;;;4.82;4.28;;;9.60;99.90;;;;;;5049898;28;20292;-79
2021/12/01 05:43:36;;;;;;;5.80;5.25;;;9.60;99.90;;;;;;5073832;28;20225;-79
2021/12/01 05:48:51;;;;;;;5.53;5.03;;;9.60;99.90;;;;;;5067975;28;20620;-79
2021/12/01 05:51:21;;;;;;;4.95;4.32;;;9.60;99.90;;;;;;5076585;28;20221;-79
2021/12/01 05:53:50;;;;;;;4.63;4.03;;;9.60;99.90;;;;;;5078319;28;20251;-81
2021/12/01 05:56:17;;;;;;;6.25;5.10;;;9.60;99.90;;;;;;5077997;28;20205;-79
2021/12/01 05:58:47;;;;;;;7.95;5.10;;;9.60;99.90;;;;;;5078520;28;20213;-79
2021/12/01 06:01:15;;;;;;;7.50;6.28;;;9.60;99.90;;;;;;5076735;28;20202;-79
2021/12/01 06:06:40;;;;;;;6.13;5.15;;;9.60;99.90;;;;;;5062375;28;20187;-81
2021/12/01 06:09:07;;;;;;;5.40;4.07;;;9.60;99.90;;;;;;5084999;28;20281;-79
2021/12/01 06:11:34;;;;;;;4.60;4.20;;;9.60;99.90;;;;;;5078900;28;20220;-78
2021/12/01 06:14:01;;;;;;;6.05;5.45;;;9.60;99.90;;;;;;5078846;28;20191;-81
2021/12/01 06:16:28;;;;;;;5.43;3.85;;;9.60;99.90;;;;;;5079842;28;20233;-78
2021/12/01 06:18:55;;;;;;;3.90;3.50;;;9.50;99.90;;;;;;5079693;28;20270;-81
2021/12/01 06:21:22;;;;;;;5.05;3.78;;;9.60;99.90;;;;;;5079319;28;20302;-80
2021/12/01 06:23:50;;;;;;;3.72;3.42;;;9.60;99.90;;;;;;5082962;28;20249;-80
2021/12/01 06:26:17;;;;;;;3.97;3.65;;;9.60;99.90;;;;;;5073098;28;20204;-81
2021/12/01 06:28:44;;;;;;;3.00;2.80;;;9.60;99.90;;;;;;5083677;28;20281;-81
2021/12/01 06:31:11;;;;;;;5.30;3.83;;;9.60;99.90;;;;;;5080170;28;20221;-81
2021/12/01 06:33:38;;;;;;;4.35;2.70;;;9.60;99.90;;;;;;5084865;28;20226;-82
2021/12/01 06:36:06;;;;;;;3.40;3.10;;;9.50;99.90;;;;;;5084612;28;20205;-81
2021/12/01 06:38:33;;;;;;;2.92;2.67;;;9.60;99.90;;;;;;5086160;28;20532;-81
2021/12/01 06:41:01;;;;;;;4.53;4.13;;;9.60;99.90;;;;;;5089303;28;20199;-81
2021/12/01 06:43:29;;;;;;;3.35;3.05;;;9.50;99.90;;;;;;5086197;28;20215;-81
2021/12/01 06:45:55;;;;;;;4.05;3.67;;;9.50;99.90;;;;;;5088907;28;20235;-81
2021/12/01 06:48:22;;;;;;;3.88;3.58;;;9.50;99.90;;;;;;5089504;28;20210;-81
2021/12/01 06:50:50;;;;;;;4.15;3.47;;;9.50;99.90;;;;;;5088402;28;20430;-81
2021/12/01 06:53:17;;;;;;;5.03;3.28;;;9.50;99.90;;;;;;5082102;28;20314;-81
2021/12/01 06:55:44;;;;;;;3.05;2.85;;;9.30;99.90;;;;;;5091046;28;20191;-81
2021/12/01 06:58:13;;;;;;;4.03;3.58;;;9.50;99.90;;;;;;5090413;28;20207;-81
2021/12/01 07:00:40;;;;;;;4.30;3.60;;;9.50;99.90;;;;;;5082548;28;20293;-80
2021/12/01 07:03:07;;;;;;;5.03;3.78;;;9.40;99.90;;;;;;5084821;28;20298;-81
2021/12/01 07:05:34;;;;;;;3.45;3.17;;;9.40;99.90;;;;;;5080936;28;20210;-82
2021/12/01 07:08:09;;;;;;;4.65;4.18;;;9.40;99.90;;;;;;5083535;28;20230;-81
2021/12/01 07:10:37;;;;;;;4.38;3.97;;;9.40;99.90;;;;;;5078617;28;20704;-81
2021/12/01 07:13:04;;;;;;;4.82;4.43;;;9.40;99.90;;;;;;5080802;28;20233;-81
2021/12/01 07:15:33;;;;;;;5.50;5.00;;;9.30;99.90;;;;;;5082266;28;20262;-80
2021/12/01 07:18:00;;;;;;;11.90;6.10;;;9.40;99.90;;;;;;5086005;28;20266;-83
2021/12/01 07:20:26;;;;;;;5.35;4.85;;;9.40;99.90;;;;;;5080179;28;20196;-81
2021/12/01 07:22:53;;;;;;;6.93;6.25;;;9.40;99.90;;;;;;5073268;28;20747;-81
2021/12/01 07:25:20;;;;;;;7.60;6.93;;;9.30;99.90;;;;;;5082514;28;20241;-81
2021/12/01 07:27:47;;;;;;;8.82;8.02;;;9.40;99.90;;;;;;5082354;28;20215;-81
2021/12/01 07:30:15;;;;;;;10.63;9.73;;;9.40;99.90;;;;;;5087247;28;20194;-82
2021/12/01 07:32:50;;;;;;;10.68;9.57;;;9.30;99.90;;;;;;5088976;28;20239;-82
2021/12/01 07:35:17;;;;;;;11.82;10.60;;;9.30;99.90;;;;;;5092171;28;20209;-79
2021/12/01 07:37:46;;;;;;;10.73;9.73;;;9.30;99.90;;;;;;5077615;28;20219;-82
2021/12/01 07:40:16;;;;;;;11.43;9.63;;;9.30;99.90;;;;;;5080092;28;20203;-83
2021/12/01 07:42:54;;;;;;;10.20;9.30;;;9.20;99.90;;;;;;5085362;28;20218;-85
2021/12/01 07:45:27;;;;;;;9.85;8.85;;;9.20;99.90;;;;;;5073109;28;20202;-85
2021/12/01 07:47:55;;;;;;;12.45;11.35;;;9.30;99.90;;;;;;5089992;28;20581;-86
2021/12/01 07:50:22;;;;;;;10.82;9.73;;;9.20;99.90;;;;;;5093850;28;20183;-85
2021/12/01 07:52:49;;;;;;;11.98;10.88;;;9.20;99.90;;;;;;5089976;28;20278;-84
2021/12/01 07:55:17;;;;;;;10.32;9.32;;;9.30;99.90;;;;;;5098435;28;20225;-79
2021/12/01 07:57:45;;;;;;;10.60;9.55;;;9.20;99.90;;;;;;5097583;28;20203;-79
2021/12/01 08:00:27;;;;;;;10.25;9.25;;;9.20;99.90;;;;;;5097632;28;20198;-84
2021/12/01 08:03:03;;;;;;;14.30;9.40;;;9.20;99.90;;;;;;5098349;28;20199;-82
2021/12/01 08:05:31;;;;;;;8.48;7.75;;;9.10;99.90;;;;;;5090661;28;20206;-81
2021/12/01 08:07:59;;;;;;;9.95;9.10;;;9.10;99.90;;;;;;5078666;28;20203;-80
2021/12/01 08:10:26;;;;;;;10.10;9.15;;;9.20;99.90;;;;;;5075469;28;20218;-80
2021/12/01 08:12:53;;;;;;;9.65;8.75;;;9.10;99.90;;;;;;5071838;28;20309;-81
2021/12/01 08:15:21;;;;;;;10.02;8.80;;;9.10;99.90;;;;;;5072678;28;20220;-80
2021/12/01 08:17:48;;;;;;;9.40;8.52;;;9.10;99.90;;;;;;5066042;28;20595;-79
2021/12/01 08:20:16;;;;;;;9.00;8.20;;;9.10;99.90;;;;;;5066342;28;20298;-81
2021/12/01 08:22:43;;;;;;;8.68;7.95;;;9.10;99.90;;;;;;5075820;28;20239;-81
2021/12/01 08:25:17;;;;;;;8.63;7.78;;;9.10;99.90;;;;;;5066587;28;20231;-81
2021/12/01 08:27:44;;;;;;;8.48;7.68;;;8.90;99.90;;;;;;5072865;28;20230;-82
2021/12/01 08:30:11;;;;;;;6.95;6.38;;;9.10;99.90;;;;;;5068141;28;20200;-83
2021/12/01 08:32:45;;;;;;;7.40;6.80;;;9.10;99.90;;;;;;5068072;28;20381;-83
2021/12/01 08:35:12;;;;;;;7.00;6.40;;;9.00;99.90;;;;;;5063789;28;20207;-83
2021/12/01 08:37:40;;;;;;;7.75;7.05;;;9.10;99.90;;;;;;5065407;28;20688;-83
2021/12/01 08:40:08;;;;;;;7.50;6.82;;;9.00;99.90;;;;;;5064323;28;20257;-82
2021/12/01 08:42:35;;;;;;;7.53;6.72;;;9.10;99.90;;;;;;5065485;28;20223;-82
2021/12/01 08:45:03;;;;;;;7.35;6.65;;;9.10;99.90;;;;;;5064498;28;20298;-83
2021/12/01 08:47:36;;;;;;;6.68;6.07;;;9.00;99.90;;;;;;5063625;28;20270;-83
2021/12/01 08:53:21;;;;;;;6.95;6.25;;;9.10;99.90;;;;;;5069607;22;20670;-74
2021/12/01 08:55:48;;;;;;;6.40;5.90;;;9.10;99.90;;;;;;5072972;28;20664;-75
2021/12/01 08:58:16;;;;;;;6.68;6.18;;;9.10;99.90;;;;;;5065483;28;20686;-75
2021/12/01 09:00:46;;;;;;;7.30;6.70;;;9.00;99.90;;;;;;5070347;28;20555;-75
2021/12/01 09:03:14;;;;;;;6.13;5.63;;;9.00;99.90;;;;;;5062343;28;20588;-75
2021/12/01 09:05:42;;;;;;;6.38;5.85;;;9.00;99.90;;;;;;5066248;28;20306;-74
2021/12/01 09:08:09;;;;;;;4.65;4.28;;;9.00;99.90;;;;;;5068825;28;20226;-75
2021/12/01 09:10:37;;;;;;;5.18;4.78;;;9.10;99.90;;;;;;5061134;28;20664;-75
2021/12/01 09:13:05;;;;;;;4.97;4.57;;;9.10;99.90;;;;;;5063685;28;20791;-76
2021/12/01 09:15:32;;;;;;;4.70;4.30;;;9.10;99.90;;;;;;5070642;28;20290;-74
2021/12/01 09:17:59;;;;;;;7.07;4.00;;;9.20;99.90;;;;;;5068624;28;20210;-75
2021/12/01 09:20:27;;;;;;;3.72;3.50;;;9.10;99.90;;;;;;5069866;28;20588;-75
2021/12/01 09:22:54;;;;;;;3.45;3.10;;;9.10;99.90;;;;;;5066588;28;20844;-73
2021/12/01 09:25:22;;;;;;;3.15;2.95;;;9.20;99.90;;;;;;5070880;28;20227;-76
2021/12/01 09:27:50;;;;;;;3.28;3.08;;;9.20;99.90;;;;;;5067439;28;20721;-76
2021/12/01 09:30:19;;;;;;;3.10;2.90;;;9.30;99.90;;;;;;5071474;28;20249;-75
2021/12/01 09:32:46;;;;;;;3.63;3.33;;;9.30;99.90;;;;;;5074261;28;20310;-75
2021/12/01 09:35:15;;;;;;;3.67;2.88;;;9.30;99.90;;;;;;5069443;28;20196;-74
2021/12/01 09:37:43;;;;;;;2.63;2.42;;;9.20;99.90;;;;;;5053741;28;20211;-75
2021/12/01 09:40:14;;;;;;;3.53;3.17;;;9.20;99.90;;;;;;5061774;28;20227;-75
2021/12/01 09:42:42;;;;;;;3.97;3.67;;;9.20;99.90;;;;;;5065111;28;20637;-75
2021/12/01 09:45:11;;;;;;;3.30;3.10;;;9.20;99.90;;;;;;5061471;28;20219;-76
2021/12/01 09:47:39;;;;;;;4.57;4.22;;;9.20;99.90;;;;;;5064417;28;20195;-74
2021/12/01 09:50:08;;;;;;;3.42;3.13;;;9.20;99.90;;;;;;5069724;28;20226;-75
2021/12/01 09:52:35;;;;;;;3.92;3.63;;;9.20;99.90;;;;;;5064168;28;20272;-76
2021/12/01 09:55:04;;;;;;;4.50;3.55;;;9.20;99.90;;;;;;5065637;28;20225;-75
2021/12/01 09:57:31;;;;;;;7.78;4.10;;;9.20;99.90;;;;;;5063512;28;20204;-75
2021/12/01 09:59:59;;;;;;;5.10;3.88;;;9.30;99.90;;;;;;5072235;28;20223;-75
2021/12/01 10:02:27;;;;;;;2.97;2.78;;;9.20;99.90;;;;;;5067162;28;20223;-75
2021/12/01 10:04:54;;;;;;;3.38;3.15;;;9.30;99.90;;;;;;5066898;28;20203;-76
2021/12/01 10:07:23;;;;;;;2.80;2.50;;;9.30;99.90;;;;;;5059134;28;20208;-74
2021/12/01 10:09:56;;;;;;;2.60;2.40;;;9.30;99.90;;;;;;5070205;28;20199;-73
2021/12/01 10:12:24;;;;;;;2.97;2.67;;;9.30;99.90;;;;;;5052307;28;20220;-74
2021/12/01 10:14:52;;;;;;;2.88;2.67;;;9.40;99.90;;;;;;5068475;28;20331;-74
2021/12/01 10:17:35;;;;;;;9.68;2.30;;;9.40;99.90;;;;;;5072340;28;20294;-76
2021/12/01 10:20:14;;;;;;;3.20;2.90;;;9.40;99.90;;;;;;5065068;28;20203;-74
2021/12/01 10:23:01;;;;;;;2.60;2.40;;;9.50;99.90;;;;;;5064567;28;20233;-75
2021/12/01 10:25:29;;;;;;;1.98;1.77;;;9.50;99.90;;;;;;5063701;28;20274;-75
2021/12/01 10:27:56;;;;;;;2.42;2.22;;;9.70;99.90;;;;;;5063513;28;20227;-75
2021/12/01 10:30:37;;;;;;;1.90;1.80;;;9.60;99.90;;;;;;5068660;28;20191;-74
2021/12/01 10:33:10;;;;;;;3.08;2.65;;;9.70;99.90;;;;;;5070726;28;20230;-74
2021/12/01 10:35:37;;;;;;;2.63;2.42;;;9.70;99.90;;;;;;5072638;28;20253;-74
2021/12/01 10:38:06;;;;;;;3.13;2.47;;;9.70;99.90;;;;;;5062458;28;20661;-74
2021/12/01 10:40:34;;;;;;;2.42;2.13;;;9.70;99.90;;;;;;5061659;28;20200;-74
2021/12/01 10:43:05;;;;;;;2.33;2.20;;;9.60;99.90;;;;;;5060606;28;20243;-75
2021/12/01 10:45:34;;;;;;;2.78;2.47;;;9.60;99.90;;;;;;5061601;28;20303;-75
2021/12/01 10:48:02;;;;;;;2.53;2.33;;;9.60;99.90;;;;;;5070758;28;20249;-75
2021/12/01 10:50:34;;;;;;;2.58;2.38;;;9.60;99.90;;;;;;5071061;28;20951;-75
2021/12/01 10:53:07;;;;;;;2.30;2.10;;;9.60;99.90;;;;;;5069692;28;20622;-75
2021/12/01 10:55:35;;;;;;;2.95;2.75;;;9.60;99.90;;;;;;5058208;28;20218;-75
2021/12/01 10:58:04;;;;;;;3.58;2.92;;;9.60;99.90;;;;;;5058161;28;20716;-76
2021/12/01 11:00:36;;;;;;;3.33;3.03;;;9.70;99.90;;;;;;5062387;28;20211;-76
2021/12/01 11:03:08;;;;;;;2.55;2.35;;;9.50;99.90;;;;;;5058435;28;20306;-75
2021/12/01 11:05:38;;;;;;;3.00;2.80;;;9.50;99.90;;;;;;5061158;28;20307;-77
2021/12/01 11:08:17;;;;;;;2.88;2.67;;;9.50;99.90;;;;;;5071585;28;20619;-75
2021/12/01 11:10:45;;;;;;;2.40;2.20;;;9.60;99.90;;;;;;5062466;28;20227;-75
2021/12/01 11:13:13;;;;;;;2.08;1.85;;;9.60;99.90;;;;;;5064704;28;20309;-75
2021/12/01 11:15:42;;;;;;;1.90;1.45;;;9.60;99.90;;;;;;5075880;28;20214;-75
2021/12/01 11:18:17;;;;;;;2.95;1.98;;;9.70;99.90;;;;;;5075686;28;20230;-74
2021/12/01 11:20:47;;;;;;;1.38;1.27;;;9.70;99.90;;;;;;5057716;28;20199;-75
2021/12/01 11:23:17;;;;;;;1.70;1.60;;;9.70;99.90;;;;;;5071266;28;20218;-74
2021/12/01 11:25:46;;;;;;;1.92;1.63;;;9.80;99.90;;;;;;5070411;28;20726;-74
2021/12/01 11:28:15;;;;;;;2.10;1.77;;;9.80;99.90;;;;;;5071101;28;20286;-75
2021/12/01 11:30:45;;;;;;;1.00;0.90;;;10.00;99.90;;;;;;5069175;28;20204;-75
2021/12/01 11:33:16;;;;;;;7.95;1.70;;;10.00;99.90;;;;;;5071275;28;20249;-76
2021/12/01 11:35:46;;;;;;;3.05;1.20;;;10.10;99.90;;;;;;5061716;28;20571;-75
2021/12/01 11:38:14;;;;;;;3.50;1.20;;;10.30;99.90;;;;;;5069825;28;20214;-75
2021/12/01 11:40:42;;;;;;;2.20;1.83;;;10.40;99.90;;;;;;5068299;28;20210;-75
2021/12/01 11:43:10;;;;;;;1.60;1.13;;;10.30;99.90;;;;;;5075390;28;20261;-75
2021/12/01 11:45:39;;;;;;;1.75;1.00;;;10.50;99.90;;;;;;5067281;28;20554;-75
2021/12/01 11:48:11;;;;;;;3.45;2.25;;;10.50;99.90;;;;;;5075252;28;20350;-74
2021/12/01 11:50:45;;;;;;;2.20;0.90;;;10.50;99.90;;;;;;5074710;28;20208;-74
2021/12/01 11:53:25;;;;;;;1.40;1.00;;;10.60;99.90;;;;;;5056098;28;20240;-74
2021/12/01 11:55:58;;;;;;;2.45;1.60;;;10.50;99.90;;;;;;5066565;28;20280;-74
2021/12/01 11:58:50;;;;;;;2.75;1.17;;;10.50;99.90;;;;;;5066412;28;20203;-75
2021/12/01 12:01:58;;;;;;;1.23;0.95;;;10.40;99.90;;;;;;5073091;28;20240;-74
2021/12/01 12:04:43;;;;;;;2.13;1.38;;;10.20;99.90;;;;;;5075202;28;20205;-76
2021/12/01 12:07:17;;;;;;;3.83;1.45;;;10.20;99.90;;;;;;5074297;28;20206;-74
2021/12/01 12:10:14;;;;;;;1.52;1.00;;;10.20;99.90;;;;;;5067196;28;20565;-75
2021/12/01 12:13:03;;;;;;;2.95;1.17;;;10.10;99.90;;;;;;5066122;28;20253;-76
2021/12/01 12:15:47;;;;;;;1.65;1.00;;;10.10;99.90;;;;;;5060938;28;20261;-74
2021/12/01 12:18:37;;;;;;;7.28;1.50;;;10.10;99.90;;;;;;5073104;28;20199;-74
2021/12/01 12:21:14;;;;;;;2.67;1.40;;;10.10;99.90;;;;;;5069301;28;20201;-74
2021/12/01 12:23:45;;;;;;;3.22;1.85;;;10.10;99.90;;;;;;5069695;28;20727;-74
2021/12/01 12:26:12;;;;;;;8.23;1.48;;;10.20;99.90;;;;;;5066187;28;20370;-74
2021/12/01 12:28:40;;;;;;;4.75;2.13;;;10.20;99.90;;;;;;5060853;28;20302;-73
2021/12/01 12:31:26;;;;;;;4.15;0.90;;;10.10;99.90;;;;;;5062357;28;20235;-74
2021/12/01 12:33:55;;;;;;;3.38;1.20;;;10.10;99.90;;;;;;5067942;28;20214;-73
2021/12/01 12:36:40;;;;;;;3.40;0.98;;;10.10;99.90;;;;;;5061126;28;20210;-74
2021/12/01 12:39:12;;;;;;;2.13;1.20;;;10.00;99.90;;;;;;5069987;28;20195;-74
2021/12/01 12:42:04;;;;;;;3.33;1.55;;;10.10;99.90;;;;;;5065837;28;20251;-74
2021/12/01 12:44:35;;;;;;;7.53;1.73;;;10.00;99.90;;;;;;5065570;28;20241;-74
2021/12/01 12:47:03;;;;;;;12.75;2.38;;;10.00;99.90;;;;;;5067786;28;20204;-74
2021/12/01 12:49:38;;;;;;;3.65;0.95;;;10.00;99.90;;;;;;5068319;28;20572;-75
2021/12/01 12:52:35;;;;;;;1.58;0.90;;;10.00;99.90;;;;;;5067939;28;20380;-74
2021/12/01 12:55:08;;;;;;;5.97;1.45;;;10.00;99.90;;;;;;5065788;28;20672;-74
2021/12/01 12:57:53;;;;;;;3.30;1.27;;;10.00;99.90;;;;;;5066570;28;20204;-75
2021/12/01 13:00:24;;;;;;;7.93;1.27;;;10.00;99.90;;;;;;5069973;28;20630;-74
2021/12/01 13:02:52;;;;;;;9.65;1.80;;;10.10;99.90;;;;;;5069732;28;20677;-74
2021/12/01 13:05:40;;;;;;;4.28;1.30;;;10.10;99.90;;;;;;5072970;28;20277;-74
2021/12/01 13:08:28;;;;;;;6.82;1.45;;;10.10;99.90;;;;;;5060984;28;20650;-74
2021/12/01 13:11:01;;;;;;;3.28;0.82;;;10.10;99.90;;;;;;5071049;28;20737;-74
2021/12/01 13:13:30;;;;;;;11.38;1.60;;;10.00;99.90;;;;;;5072372;28;20224;-76
2021/12/01 13:15:58;;;;;;;4.63;1.33;;;10.10;99.90;;;;;;5070389;28;20198;-75
2021/12/01 13:18:27;;;;;;;1.40;1.20;;;10.00;99.90;;;;;;5066051;28;20221;-74
2021/12/01 13:20:56;;;;;;;7.13;1.55;;;10.00;99.90;;;;;;5072299;28;20198;-73
2021/12/01 13:23:25;;;;;;;4.20;2.90;;;10.00;99.90;;;;;;5068109;28;20314;-74
2021/12/01 13:26:14;;;;;;;7.43;2.40;;;10.00;99.90;;;;;;5070609;28;20210;-73
2021/12/01 13:28:44;;;;;;;4.38;1.20;;;10.00;99.90;;;;;;5059889;28;20221;-74
2021/12/01 13:31:14;;;;;;;6.15;1.50;;;10.00;99.90;;;;;;5064202;28;20365;-74
2021/12/01 13:34:10;;;;;;;3.97;1.30;;;10.00;99.90;;;;;;5060726;28;20227;-74
2021/12/01 13:36:38;;;;;;;2.42;1.20;;;10.00;99.90;;;;;;5006573;28;20248;-75